Terminal Aerodrome Forecast
Issued by NWS

Home | Current Version | Previous Version | Text Only | Print | Product List | Glossary On
Versions: 1 2 3 4 5 6 7 8 9 10 11 12 13 14
000
FTUS44 KMAF 282320
TAFCNM
TAF
KCNM 282320Z 2900/2924 13008KT P6SM SCT060 SCT130
      TEMPO 2900/2904 VRB15G25KT 6SM TSRA BKN050CB
     FM290400 12006KT P6SM FEW050 OVC060
     FM291200 05006KT 5SM BR OVC004
     FM291800 07007KT P6SM OVC019
     FM292100 05009KT P6SM OVC030=

USA.gov is the U.S. government's official web portal to all federal, state and local government web resources and services.